Time;durP1;ratioP1;P1;durP2;ratioP2;P2;SDS_P1;SDS_P2;PMS_P1;PMS_P2;Temp;Humidity;BMP_temperature;BMP_pressure;BME280_temperature;BME280_humidity;BME280_pressure;Samples;Min_cycle;Max_cycle;Signal;HPM_P1;HPM_P2
2020/12/25 00:00:14;;;;;;;10.13;5.65;;;;;;;17.41;57.48;102242.47;4815136;29;20033;-78
2020/12/25 00:02:40;;;;;;;11.18;6.30;;;;;;;17.41;57.40;102259.84;4841350;29;20515;-78
2020/12/25 00:05:06;;;;;;;9.43;5.72;;;;;;;17.42;57.33;102279.78;4844743;29;20498;-78
2020/12/25 00:07:31;;;;;;;9.07;5.10;;;;;;;17.40;57.46;102281.53;4829684;29;20037;-78
2020/12/25 00:09:56;;;;;;;10.38;5.57;;;;;;;17.40;57.32;102299.72;4845744;29;20037;-78
2020/12/25 00:12:22;;;;;;;10.60;5.22;;;;;;;17.39;57.22;102296.22;4855959;29;20041;-77
2020/12/25 00:14:47;;;;;;;10.45;5.28;;;;;;;17.36;57.41;102300.53;4813687;29;20034;-78
2020/12/25 00:17:12;;;;;;;12.57;5.07;;;;;;;17.38;57.01;102312.72;4840750;29;20055;-78
2020/12/25 00:19:38;;;;;;;8.82;4.88;;;;;;;17.38;57.38;102323.13;4847818;29;20044;-78
2020/12/25 00:22:03;;;;;;;13.35;5.57;;;;;;;17.37;57.07;102317.88;4844392;29;20033;-78
2020/12/25 00:24:29;;;;;;;8.10;4.72;;;;;;;17.37;57.36;102310.06;4841587;29;20087;-78
2020/12/25 00:26:54;;;;;;;9.18;4.82;;;;;;;17.37;56.81;102305.75;4844300;29;20481;-78
2020/12/25 00:29:19;;;;;;;12.90;4.85;;;;;;;17.36;56.95;102300.53;4829500;29;20033;-78
2020/12/25 00:31:45;;;;;;;7.32;4.40;;;;;;;17.36;57.06;102300.53;4844858;29;20045;-78
2020/12/25 00:34:11;;;;;;;8.35;4.75;;;;;;;17.35;56.92;102286.63;4854475;29;20045;-78
2020/12/25 00:36:42;;;;;;;8.57;4.80;;;;;;;17.36;57.11;102296.19;4843831;29;20037;-77
2020/12/25 00:39:13;;;;;;;9.77;4.60;;;;;;;17.35;57.12;102303.97;4861138;29;20033;-77
2020/12/25 00:41:49;;;;;;;7.40;4.68;;;;;;;17.37;56.81;102308.34;4848893;29;20027;-77
2020/12/25 00:44:15;;;;;;;6.95;4.57;;;;;;;17.33;57.00;102321.28;4844994;29;20117;-77
2020/12/25 00:46:42;;;;;;;7.35;4.30;;;;;;;17.35;56.88;102317.84;4828795;29;20045;-78
2020/12/25 00:49:07;;;;;;;8.75;4.38;;;;;;;17.35;56.96;102316.97;4860811;29;20029;-78
2020/12/25 00:51:33;;;;;;;6.07;3.92;;;;;;;17.33;56.99;102311.75;4844826;29;20038;-78
2020/12/25 00:53:58;;;;;;;7.22;4.25;;;;;;;17.32;56.90;102306.53;4846818;29;20393;-77
2020/12/25 00:56:24;;;;;;;6.53;4.20;;;;;;;17.34;56.98;102307.44;4854593;29;20084;-78
2020/12/25 00:58:49;;;;;;;6.65;4.00;;;;;;;17.32;56.82;102307.41;4868485;29;20107;-78
2020/12/25 01:01:15;;;;;;;7.10;4.20;;;;;;;17.32;56.91;102310.00;4834516;29;20393;-78
2020/12/25 01:03:43;;;;;;;6.30;3.58;;;;;;;17.35;56.98;102319.59;4860774;29;20039;-78
2020/12/25 01:06:12;;;;;;;7.55;3.58;;;;;;;17.32;56.84;102315.22;4843686;29;20037;-78
2020/12/25 01:08:38;;;;;;;7.43;3.85;;;;;;;17.30;56.66;102308.25;4862367;29;20367;-78
2020/12/25 01:11:05;;;;;;;5.57;3.42;;;;;;;17.29;56.75;102315.19;4869452;29;20033;-78
2020/12/25 01:13:32;;;;;;;7.75;3.80;;;;;;;17.32;56.92;102311.75;4860347;29;20449;-78
2020/12/25 01:16:05;;;;;;;7.97;3.92;;;;;;;17.29;56.54;102317.78;4858957;29;20029;-78
2020/12/25 01:18:32;;;;;;;8.95;3.80;;;;;;;17.30;56.68;102319.53;4860592;29;20039;-78
2020/12/25 01:20:57;;;;;;;4.75;3.58;;;;;;;17.30;56.70;102331.66;4843395;29;20041;-78
2020/12/25 01:23:23;;;;;;;6.25;3.63;;;;;;;17.28;56.29;102344.63;4859749;29;20028;-78
2020/12/25 01:25:49;;;;;;;8.90;3.55;;;;;;;17.28;56.49;102352.44;4828698;29;20561;-78
2020/12/25 01:28:15;;;;;;;5.50;3.20;;;;;;;17.28;56.78;102353.31;4844371;29;20105;-78
2020/12/25 01:30:40;;;;;;;6.20;3.65;;;;;;;17.27;56.86;102328.16;4844115;29;20053;-78
2020/12/25 01:33:06;;;;;;;6.35;3.47;;;;;;;17.29;56.47;102336.00;4859722;29;20034;-78
2020/12/25 01:35:31;;;;;;;5.00;3.10;;;;;;;17.28;56.53;102331.63;4836760;29;20033;-77
2020/12/25 01:37:56;;;;;;;5.07;3.38;;;;;;;17.27;56.68;102337.69;4799604;29;20034;-77
2020/12/25 01:40:22;;;;;;;9.02;3.80;;;;;;;17.27;56.53;102337.69;4841280;29;20030;-78
2020/12/25 01:42:47;;;;;;;5.90;3.22;;;;;;;17.28;56.38;102347.25;4844074;29;20030;-78
2020/12/25 01:45:13;;;;;;;6.13;3.15;;;;;;;17.27;56.25;102348.97;4844769;29;20446;-78
2020/12/25 01:47:38;;;;;;;5.22;3.10;;;;;;;17.26;56.16;102351.53;4848344;29;20121;-78
2020/12/25 01:50:04;;;;;;;5.13;3.00;;;;;;;17.26;56.72;102351.53;4849984;29;20500;-78
2020/12/25 01:52:30;;;;;;;5.70;3.17;;;;;;;17.26;56.50;102361.94;4865329;29;20085;-78
2020/12/25 01:54:56;;;;;;;5.70;2.75;;;;;;;17.26;56.42;102372.34;4850594;29;20041;-77
2020/12/25 01:57:23;;;;;;;4.97;2.90;;;;;;;17.24;56.18;102361.03;4865775;29;20032;-78
2020/12/25 01:59:51;;;;;;;4.80;2.90;;;;;;;17.24;56.28;102366.25;4878762;29;20033;-78
2020/12/25 02:02:16;;;;;;;5.90;3.25;;;;;;;17.25;56.44;102365.41;4860635;29;20045;-78
2020/12/25 02:04:42;;;;;;;4.45;2.90;;;;;;;17.25;56.35;102363.69;4874132;29;20047;-78
2020/12/25 02:07:07;;;;;;;4.03;2.50;;;;;;;17.24;56.32;102382.72;4884408;29;20029;-78
2020/12/25 02:09:33;;;;;;;4.72;2.92;;;;;;;17.22;56.22;102389.66;4839605;29;20064;-78
2020/12/25 02:11:58;;;;;;;5.70;3.00;;;;;;;17.25;56.36;102401.84;4871925;29;20041;-78
2020/12/25 02:14:23;;;;;;;5.43;2.90;;;;;;;17.22;56.34;102401.78;4848917;29;20067;-78
2020/12/25 02:16:49;;;;;;;4.43;2.70;;;;;;;17.23;56.46;102395.72;4849104;29;20029;-78
2020/12/25 02:19:14;;;;;;;5.90;2.88;;;;;;;17.23;56.37;102391.41;4834759;29;20029;-78
2020/12/25 02:21:40;;;;;;;4.00;2.42;;;;;;;17.22;56.17;102397.47;4833996;29;20033;-77
2020/12/25 02:24:05;;;;;;;3.22;2.42;;;;;;;17.22;56.00;102399.16;4851404;29;20065;-78
2020/12/25 02:26:31;;;;;;;4.47;2.38;;;;;;;17.22;55.95;102407.88;4838832;29;20033;-78
2020/12/25 02:28:56;;;;;;;3.92;2.40;;;;;;;17.21;55.96;102410.44;4840614;29;20029;-78
2020/12/25 02:31:22;;;;;;;4.00;2.63;;;;;;;17.21;56.28;102419.13;4848855;29;20044;-77
2020/12/25 02:33:48;;;;;;;4.15;2.63;;;;;;;17.21;56.21;102405.25;4848823;29;20044;-78
2020/12/25 02:36:13;;;;;;;5.30;2.20;;;;;;;17.21;56.19;102397.44;4804092;29;20037;-78
2020/12/25 02:38:39;;;;;;;4.22;2.47;;;;;;;17.21;56.16;102407.84;4833659;29;20041;-78
2020/12/25 02:41:04;;;;;;;3.92;2.33;;;;;;;17.22;55.88;102409.56;4849538;29;20041;-78
2020/12/25 02:43:29;;;;;;;3.90;2.38;;;;;;;17.21;56.10;102416.50;4819774;29;20507;-78
2020/12/25 02:45:55;;;;;;;4.10;2.25;;;;;;;17.21;56.31;102424.31;4818043;29;20061;-78
2020/12/25 02:48:20;;;;;;;4.53;2.20;;;;;;;17.20;56.01;102430.38;4849078;29;20041;-78
2020/12/25 02:50:46;;;;;;;3.67;2.10;;;;;;;17.19;56.14;102430.34;4874874;29;20580;-78
2020/12/25 02:53:11;;;;;;;3.85;2.35;;;;;;;17.20;55.89;102424.28;4840944;29;20093;-78
2020/12/25 02:55:36;;;;;;;4.55;2.60;;;;;;;17.20;56.07;102424.28;4818963;29;20041;-78
2020/12/25 02:58:02;;;;;;;3.85;2.20;;;;;;;17.19;55.94;102417.34;4850825;29;20037;-78
2020/12/25 03:00:27;;;;;;;3.22;1.85;;;;;;;17.17;55.92;102419.03;4816112;29;20093;-78
2020/12/25 03:02:53;;;;;;;4.00;2.20;;;;;;;17.18;56.17;102410.38;4816159;29;20037;-78
2020/12/25 03:05:18;;;;;;;4.28;2.30;;;;;;;17.17;55.75;102411.22;4847273;29;20512;-78
2020/12/25 03:07:43;;;;;;;3.25;2.00;;;;;;;17.16;55.76;102409.47;4831226;29;20108;-78
2020/12/25 03:10:09;;;;;;;4.90;2.30;;;;;;;17.16;55.77;102401.66;4815728;29;20042;-78
2020/12/25 03:12:34;;;;;;;4.18;2.20;;;;;;;17.16;55.88;102391.25;4829601;29;20477;-78
2020/12/25 03:14:59;;;;;;;4.20;1.95;;;;;;;17.15;55.95;102390.38;4831241;29;20106;-78
2020/12/25 03:17:25;;;;;;;3.42;1.95;;;;;;;17.15;55.86;102397.31;4830760;29;20553;-78
2020/12/25 03:19:50;;;;;;;2.88;2.10;;;;;;;17.14;55.77;102400.78;4820301;29;20033;-78
2020/12/25 03:22:15;;;;;;;4.03;1.95;;;;;;;17.14;55.83;102406.00;4848731;29;20090;-78
2020/12/25 03:24:41;;;;;;;3.47;2.05;;;;;;;17.15;55.87;102407.72;4819581;29;20117;-78
2020/12/25 03:27:06;;;;;;;3.28;1.90;;;;;;;17.14;55.79;102408.59;4822245;29;20079;-78
2020/12/25 03:29:32;;;;;;;3.22;1.90;;;;;;;17.14;55.54;102406.88;4814747;29;20033;-78
2020/12/25 03:31:57;;;;;;;2.78;1.80;;;;;;;17.14;55.80;102406.00;4823542;29;20029;-77
2020/12/25 03:34:23;;;;;;;3.42;2.08;;;;;;;17.15;55.57;102407.72;4862530;29;20068;-78
2020/12/25 03:36:48;;;;;;;3.20;1.80;;;;;;;17.14;55.60;102404.25;4848587;29;20101;-78
2020/12/25 03:39:13;;;;;;;2.85;1.90;;;;;;;17.12;55.94;102397.28;4836730;29;20044;-78
2020/12/25 03:41:39;;;;;;;3.75;1.92;;;;;;;17.13;55.66;102406.81;4832555;29;22123;-77
2020/12/25 03:44:04;;;;;;;2.80;1.67;;;;;;;17.12;55.63;102410.28;4840898;29;20042;-78
2020/12/25 03:46:36;;;;;;;3.80;1.92;;;;;;;17.11;55.59;102414.59;4841161;29;20216;-77
2020/12/25 03:49:07;;;;;;;2.78;1.45;;;;;;;17.11;55.65;102425.00;4816909;29;20033;-77
2020/12/25 03:51:32;;;;;;;3.10;1.60;;;;;;;17.10;55.45;102425.84;4862260;29;20433;-78
2020/12/25 03:53:58;;;;;;;2.80;1.83;;;;;;;17.09;55.41;102418.88;4829835;29;20037;-78
2020/12/25 03:56:24;;;;;;;2.97;1.75;;;;;;;17.09;55.52;102437.09;4830908;29;20044;-78
2020/12/25 03:58:49;;;;;;;3.10;1.77;;;;;;;17.09;55.59;102442.28;4815543;29;20029;-79
2020/12/25 04:01:15;;;;;;;4.18;1.60;;;;;;;17.08;55.69;102439.69;4846627;29;20100;-79
2020/12/25 04:03:40;;;;;;;2.90;1.75;;;;;;;17.09;55.65;102431.03;4845685;29;20098;-80
2020/12/25 04:06:06;;;;;;;2.67;1.55;;;;;;;17.07;55.41;102433.59;4865726;29;20084;-79
2020/12/25 04:08:31;;;;;;;3.15;1.50;;;;;;;17.08;55.55;102435.34;4841473;29;20067;-79
2020/12/25 04:10:56;;;;;;;3.35;1.55;;;;;;;17.08;55.50;102434.50;4865595;29;20065;-80
2020/12/25 04:13:22;;;;;;;2.83;1.65;;;;;;;17.08;55.75;102447.50;4835312;29;20033;-79
2020/12/25 04:15:48;;;;;;;2.88;1.55;;;;;;;17.08;55.83;102443.16;4846278;29;20044;-80
2020/12/25 04:18:14;;;;;;;3.42;1.70;;;;;;;17.07;55.31;102451.78;4861559;29;20038;-79
2020/12/25 04:20:39;;;;;;;2.47;1.48;;;;;;;17.05;55.50;102454.41;4813019;29;20034;-79
2020/12/25 04:23:04;;;;;;;3.63;1.67;;;;;;;17.06;55.44;102457.84;4818910;29;20093;-79
2020/12/25 04:25:30;;;;;;;2.78;1.25;;;;;;;17.04;55.38;102465.63;4803289;29;20039;-79
2020/12/25 04:27:55;;;;;;;2.97;1.80;;;;;;;17.05;55.55;102466.53;4826515;29;20381;-79
2020/12/25 04:30:21;;;;;;;2.40;1.30;;;;;;;17.05;55.37;102466.53;4814371;29;20036;-79
2020/12/25 04:32:46;;;;;;;2.40;1.50;;;;;;;17.04;55.21;102473.44;4830347;29;20029;-79
2020/12/25 04:35:11;;;;;;;3.03;1.30;;;;;;;17.04;55.10;102468.22;4842927;29;20048;-79
2020/12/25 04:37:37;;;;;;;2.22;1.30;;;;;;;17.03;55.31;102473.44;4860882;29;20041;-79
2020/12/25 04:40:04;;;;;;;3.00;1.35;;;;;;;17.02;55.45;102472.53;4841258;29;20041;-79
2020/12/25 04:42:30;;;;;;;2.63;1.20;;;;;;;17.02;55.13;102482.94;4845796;29;20040;-80
2020/12/25 04:44:55;;;;;;;2.20;1.20;;;;;;;17.02;55.48;102480.31;4842084;29;20040;-79
2020/12/25 04:47:21;;;;;;;2.33;1.40;;;;;;;17.02;55.42;102484.66;4855768;29;20057;-80
2020/12/25 04:49:47;;;;;;;2.78;1.50;;;;;;;17.02;55.36;102500.25;4843282;29;20028;-80
2020/12/25 04:52:34;;;;;;;3.50;1.67;;;;;;;17.02;55.17;102492.47;4862149;29;20025;-81
2020/12/25 04:54:59;;;;;;;3.88;1.30;;;;;;;17.01;55.15;102491.59;4858072;29;20109;-80
2020/12/25 04:57:25;;;;;;;3.13;1.30;;;;;;;17.01;55.28;102475.13;4845333;29;20074;-80
2020/12/25 04:59:50;;;;;;;2.22;1.35;;;;;;;17.02;55.42;102476.84;4864577;29;20036;-80
2020/12/25 05:02:15;;;;;;;2.30;1.15;;;;;;;17.01;55.32;102477.72;4860799;29;20029;-79
2020/12/25 05:04:41;;;;;;;2.72;1.55;;;;;;;17.00;55.33;102479.41;4830247;29;21632;-80
2020/12/25 05:07:06;;;;;;;2.95;1.45;;;;;;;17.01;55.45;102486.38;4855715;29;20033;-80
2020/12/25 05:09:32;;;;;;;3.33;1.50;;;;;;;17.00;55.14;102481.16;4846334;29;20029;-79
2020/12/25 05:11:58;;;;;;;3.03;1.33;;;;;;;17.00;55.03;102496.75;4840638;29;20035;-79
2020/12/25 05:14:26;;;;;;;2.08;1.10;;;;;;;16.99;55.15;102495.88;4826166;29;20128;-80
2020/12/25 05:16:57;;;;;;;2.30;1.23;;;;;;;17.00;55.04;102502.81;4843839;29;20108;-80
2020/12/25 05:19:28;;;;;;;2.60;1.25;;;;;;;16.96;54.93;102495.84;4844966;29;20447;-80
2020/12/25 05:21:57;;;;;;;2.42;1.30;;;;;;;16.99;55.07;102502.81;4861076;29;20029;-80
2020/12/25 05:24:24;;;;;;;4.07;1.10;;;;;;;16.99;55.25;102498.47;4861155;29;20022;-80
2020/12/25 05:26:54;;;;;;;3.15;1.50;;;;;;;16.98;55.09;102506.25;4844703;29;20044;-79
2020/12/25 05:29:24;;;;;;;4.65;1.35;;;;;;;16.98;55.44;102503.66;4844575;29;20029;-79
2020/12/25 05:31:51;;;;;;;3.28;1.40;;;;;;;16.96;55.16;102500.13;4829320;29;20101;-80
2020/12/25 05:34:18;;;;;;;2.70;1.50;;;;;;;16.96;55.20;102503.63;4851253;29;20045;-79
2020/12/25 05:36:54;;;;;;;1.88;1.08;;;;;;;16.96;55.20;102513.13;4832275;29;20560;-79
2020/12/25 05:39:33;;;;;;;1.75;1.00;;;;;;;16.97;54.92;102525.31;4851358;29;20033;-79
2020/12/25 05:42:02;;;;;;;3.30;1.10;;;;;;;16.95;54.99;102525.28;4845204;29;20033;-79
2020/12/25 05:44:30;;;;;;;2.42;1.35;;;;;;;16.95;55.08;102527.88;4859680;29;20033;-79
2020/12/25 05:46:59;;;;;;;1.88;1.17;;;;;;;16.95;55.27;102520.06;4840000;29;20054;-79
2020/12/25 05:49:29;;;;;;;2.78;1.40;;;;;;;16.95;55.01;102519.19;4862542;29;20029;-80
2020/12/25 05:51:56;;;;;;;3.42;1.23;;;;;;;16.93;55.08;102485.34;4862832;29;20103;-79
2020/12/25 05:54:27;;;;;;;2.47;1.52;;;;;;;16.94;55.16;102494.94;4851668;29;20049;-79
2020/12/25 05:56:54;;;;;;;2.72;1.10;;;;;;;16.94;54.99;102502.72;4863523;29;20029;-79
2020/12/25 05:59:28;;;;;;;2.53;1.20;;;;;;;16.95;54.93;102498.41;4832665;29;20040;-80
2020/12/25 06:01:56;;;;;;;2.38;1.02;;;;;;;16.93;54.95;102498.34;4859854;29;20098;-80
2020/12/25 06:04:23;;;;;;;2.10;1.17;;;;;;;16.92;55.05;102512.22;4833556;29;20026;-79
2020/12/25 06:06:49;;;;;;;1.73;0.80;;;;;;;16.91;54.74;102499.19;4843909;29;20522;-79
2020/12/25 06:09:17;;;;;;;3.70;1.40;;;;;;;16.93;54.97;102513.09;4844813;29;20029;-79
2020/12/25 06:11:48;;;;;;;2.40;1.35;;;;;;;16.91;55.18;102507.84;4844064;29;20040;-79
2020/12/25 06:14:14;;;;;;;2.17;1.13;;;;;;;16.91;54.95;102520.84;4877529;29;20600;-80
2020/12/25 06:16:58;;;;;;;2.67;1.10;;;;;;;16.92;54.78;102521.72;4866036;29;20120;-79
2020/12/25 06:19:35;;;;;;;2.65;1.30;;;;;;;16.91;55.05;102526.06;4846361;29;20025;-79
2020/12/25 06:22:07;;;;;;;1.92;1.00;;;;;;;16.91;55.02;102533.84;4852846;29;20041;-79
2020/12/25 06:24:36;;;;;;;4.45;1.00;;;;;;;16.90;54.83;102542.53;4867231;29;20033;-79
2020/12/25 06:27:04;;;;;;;4.25;1.13;;;;;;;16.91;54.71;102535.59;4847492;29;20041;-79
2020/12/25 06:29:30;;;;;;;2.45;1.23;;;;;;;16.89;54.74;102543.34;4861797;29;20045;-79
2020/12/25 06:31:58;;;;;;;2.92;1.10;;;;;;;16.89;54.82;102545.06;4861622;29;20029;-80
2020/12/25 06:34:43;;;;;;;2.60;1.15;;;;;;;16.90;54.69;102542.53;4852698;29;20037;-80
2020/12/25 06:37:14;;;;;;;2.10;0.98;;;;;;;16.88;54.95;102536.41;4878551;29;20381;-80
2020/12/25 06:40:06;;;;;;;1.65;0.90;;;;;;;16.89;55.15;102545.06;4847817;29;20029;-80
2020/12/25 06:42:36;;;;;;;2.17;0.90;;;;;;;16.88;54.71;102541.59;4841102;29;20049;-80
2020/12/25 06:45:03;;;;;;;2.58;1.00;;;;;;;16.88;54.50;102540.75;4863561;29;20400;-79
2020/12/25 06:47:34;;;;;;;2.70;1.10;;;;;;;16.88;54.81;102541.59;4847410;29;20493;-80
2020/12/25 06:50:10;;;;;;;3.13;1.15;;;;;;;16.86;54.85;102538.97;4873486;29;20030;-80
2020/12/25 06:52:56;;;;;;;2.80;1.05;;;;;;;16.87;54.74;102547.63;4868155;29;20025;-79
2020/12/25 06:55:25;;;;;;;1.95;0.98;;;;;;;16.85;54.71;102550.22;4862543;29;20392;-79
2020/12/25 06:57:55;;;;;;;1.92;0.90;;;;;;;16.83;54.61;102559.72;4833106;29;20416;-79
2020/12/25 07:00:20;;;;;;;2.13;0.90;;;;;;;16.84;54.67;102571.00;4851553;29;20057;-79
2020/12/25 07:02:47;;;;;;;1.73;0.90;;;;;;;16.85;54.62;102570.13;4833109;29;20045;-80
2020/12/25 07:05:13;;;;;;;1.90;0.90;;;;;;;16.84;54.54;102589.19;4873400;29;20037;-79
2020/12/25 07:07:41;;;;;;;1.35;0.73;;;;;;;16.84;54.41;102610.88;4865166;29;20120;-78
2020/12/25 07:10:11;;;;;;;1.65;0.95;;;;;;;16.84;54.35;102612.59;4857098;29;20033;-77
2020/12/25 07:12:37;;;;;;;4.53;1.20;;;;;;;16.83;54.68;102609.13;4852731;29;20085;-78
2020/12/25 07:15:04;;;;;;;2.63;1.00;;;;;;;16.84;54.69;102628.19;4844635;29;20030;-77
2020/12/25 07:17:48;;;;;;;2.08;1.27;;;;;;;16.85;54.98;102619.53;4834791;29;20038;-80
2020/12/25 07:20:14;;;;;;;;;;;;;;;16.85;54.74;102610.03;4864080;29;20041;-79
2020/12/25 07:22:40;;;;;;;2.40;1.25;;;;;;;16.86;54.93;102596.16;4866086;29;19920;-76
2020/12/25 07:25:09;;;;;;;4.30;1.95;;;;;;;16.89;55.04;102594.47;4845318;29;20089;-78
2020/12/25 07:27:35;;;;;;;4.07;1.30;;;;;;;16.88;54.99;102593.63;4830059;29;20037;-76
2020/12/25 07:30:00;;;;;;;2.88;1.17;;;;;;;16.90;55.13;102596.22;4855356;29;20060;-76
2020/12/25 07:32:26;;;;;;;3.38;1.40;;;;;;;16.90;55.14;102597.13;4830754;29;20053;-77
2020/12/25 07:34:51;;;;;;;4.97;1.20;;;;;;;16.91;55.27;102596.25;4829666;29;20097;-76
2020/12/25 07:37:17;;;;;;;2.40;1.10;;;;;;;16.92;55.10;102603.25;4829641;29;20041;-76
2020/12/25 07:39:42;;;;;;;3.47;1.27;;;;;;;16.92;55.30;102603.25;4845927;29;20025;-77
2020/12/25 07:42:08;;;;;;;4.60;1.15;;;;;;;16.93;55.18;102604.97;4840518;29;20072;-77
2020/12/25 07:44:33;;;;;;;7.53;1.40;;;;;;;16.94;55.48;102606.75;4846216;29;20034;-76
2020/12/25 07:46:59;;;;;;;4.03;0.95;;;;;;;16.96;55.42;102606.75;4832055;29;20049;-76
2020/12/25 07:49:27;;;;;;;4.57;1.20;;;;;;;16.97;55.68;102606.81;4860982;29;20507;-76
2020/12/25 07:51:52;;;;;;;3.00;0.93;;;;;;;16.99;55.84;102605.13;4855676;29;20033;-78
2020/12/25 07:54:18;;;;;;;2.28;1.02;;;;;;;16.99;55.61;102618.13;4830398;29;20416;-77
2020/12/25 07:56:44;;;;;;;2.75;1.20;;;;;;;16.99;55.73;102610.31;4847225;29;20029;-77
2020/12/25 07:59:09;;;;;;;2.60;1.13;;;;;;;17.00;55.97;102612.06;4860941;29;20037;-77
2020/12/25 08:01:34;;;;;;;3.38;1.00;;;;;;;17.02;55.91;102612.09;4850337;29;20098;-77
2020/12/25 08:04:01;;;;;;;3.78;1.05;;;;;;;17.03;55.86;102619.06;4849493;29;20491;-77
2020/12/25 08:06:29;;;;;;;1.95;0.90;;;;;;;17.06;55.67;102620.00;4860261;29;20034;-78
2020/12/25 08:09:04;;;;;;;5.43;1.10;;;;;;;17.08;55.67;102617.44;4845107;29;20029;-77
2020/12/25 08:11:30;;;;;;;2.65;1.20;;;;;;;17.08;55.78;102630.44;4852493;29;20389;-77
2020/12/25 08:14:08;;;;;;;2.15;1.08;;;;;;;17.05;56.09;102628.66;4844539;29;20128;-77
2020/12/25 08:16:38;;;;;;;2.53;1.10;;;;;;;17.03;55.86;102619.06;4844036;29;20033;-77
2020/12/25 08:19:05;;;;;;;3.97;0.88;;;;;;;17.02;55.77;102622.50;4846074;29;20090;-77
2020/12/25 08:21:31;;;;;;;2.20;0.90;;;;;;;17.03;55.97;102612.13;4858678;29;20396;-77
2020/12/25 08:23:57;;;;;;;2.22;0.93;;;;;;;17.05;55.89;102614.78;4847963;29;20821;-78
2020/12/25 08:26:35;;;;;;;2.55;1.00;;;;;;;17.08;55.62;102624.38;4845448;29;20058;-78
2020/12/25 08:29:00;;;;;;;1.83;0.90;;;;;;;17.10;55.46;102630.47;4831071;29;20036;-77
2020/12/25 08:31:40;;;;;;;3.35;1.02;;;;;;;17.11;55.83;102643.50;4846868;29;20037;-78
2020/12/25 08:34:07;;;;;;;3.38;1.00;;;;;;;17.09;55.55;102641.72;4862619;29;20057;-77
2020/12/25 08:36:33;;;;;;;3.17;0.95;;;;;;;17.06;55.80;102646.00;4861776;29;20029;-77
2020/12/25 08:38:58;;;;;;;2.33;0.90;;;;;;;17.05;55.85;102644.25;4829279;29;20572;-77
2020/12/25 08:41:28;;;;;;;2.63;0.90;;;;;;;17.05;55.92;102646.00;4829511;29;20045;-77
2020/12/25 08:43:54;;;;;;;1.95;0.90;;;;;;;17.05;55.98;102635.59;4849558;29;20051;-78
2020/12/25 08:46:23;;;;;;;3.05;0.88;;;;;;;17.07;55.95;102633.88;4825002;29;20402;-78
2020/12/25 08:48:52;;;;;;;2.60;1.05;;;;;;;17.07;55.93;102623.47;4829265;29;20040;-78
2020/12/25 08:51:19;;;;;;;2.92;1.00;;;;;;;17.08;55.87;102620.03;4842104;29;20561;-78
2020/12/25 08:53:54;;;;;;;1.33;0.80;;;;;;;17.10;55.73;102630.47;4829051;29;20113;-78
2020/12/25 08:56:21;;;;;;;2.22;0.80;;;;;;;17.10;55.89;102620.06;4827812;29;20022;-79
2020/12/25 08:59:03;;;;;;;1.27;0.70;;;;;;;17.12;55.80;102636.59;4827976;29;20026;-78
2020/12/25 09:01:31;;;;;;;2.22;1.02;;;;;;;17.12;55.80;102632.25;4827783;29;20518;-77
2020/12/25 09:03:56;;;;;;;1.95;0.80;;;;;;;17.14;55.49;102629.72;4834795;29;20044;-78
2020/12/25 09:06:22;;;;;;;2.33;0.85;;;;;;;17.18;55.53;102628.91;4832497;29;20097;-78
2020/12/25 09:08:47;;;;;;;5.78;0.77;;;;;;;17.18;55.45;102635.00;4845165;29;20074;-77
2020/12/25 09:11:16;;;;;;;3.22;0.75;;;;;;;17.19;55.59;102631.53;4836667;29;20073;-77
2020/12/25 09:13:42;;;;;;;4.82;0.90;;;;;;;17.20;55.35;102635.91;4824643;29;20030;-77
2020/12/25 09:16:09;;;;;;;3.25;1.00;;;;;;;17.24;55.00;102636.84;4827422;29;20036;-77
2020/12/25 09:18:36;;;;;;;1.77;0.70;;;;;;;17.28;54.71;102641.25;4817572;29;20027;-77
2020/12/25 09:21:01;;;;;;;5.80;1.20;;;;;;;17.21;53.02;102640.25;4828229;29;20080;-80
2020/12/25 09:23:30;;;;;;;7.18;1.30;;;;;;;17.25;53.66;102649.00;4837567;29;20117;-78
2020/12/25 09:25:56;;;;;;;5.22;1.70;;;;;;;17.27;53.77;102643.00;4836016;29;20481;-79
2020/12/25 09:28:25;;;;;;;8.60;2.38;;;;;;;17.32;53.63;102643.06;4832282;29;20069;-79
2020/12/25 09:30:54;;;;;;;9.85;2.05;;;;;;;17.34;53.95;102654.41;4830332;29;20053;-78
2020/12/25 09:33:20;;;;;;;10.00;2.25;;;;;;;17.37;53.67;102649.25;4825282;29;20046;-77
2020/12/25 09:35:46;;;;;;;10.65;2.30;;;;;;;17.39;53.53;102657.97;4837437;29;20463;-79
2020/12/25 09:38:12;;;;;;;7.35;2.00;;;;;;;17.41;53.83;102653.66;4827831;29;20093;-78
2020/12/25 09:40:38;;;;;;;11.73;2.28;;;;;;;17.44;53.95;102651.13;4830254;29;20494;-78
2020/12/25 09:43:04;;;;;;;5.82;2.00;;;;;;;17.45;53.89;102650.28;4808786;29;20034;-78
2020/12/25 09:45:29;;;;;;;6.47;1.92;;;;;;;17.46;53.70;102646.84;4823825;29;20393;-77
2020/12/25 09:47:54;;;;;;;9.55;2.28;;;;;;;17.48;53.76;102646.84;4821141;29;20185;-78
2020/12/25 09:50:20;;;;;;;13.25;2.50;;;;;;;17.54;53.58;102646.97;4805836;29;20054;-80
2020/12/25 09:52:45;;;;;;;6.90;1.80;;;;;;;17.58;53.31;102645.31;4785023;29;20033;-80
2020/12/25 09:55:10;;;;;;;6.00;1.80;;;;;;;17.57;53.62;102646.16;4825446;29;20041;-79
2020/12/25 09:57:36;;;;;;;8.88;1.80;;;;;;;17.56;53.54;102639.22;4823270;29;20047;-78
2020/12/25 10:00:12;;;;;;;7.22;1.90;;;;;;;17.57;53.59;102649.66;4806452;29;20406;-78
2020/12/25 10:02:38;;;;;;;5.35;1.98;;;;;;;17.66;53.22;102648.97;4820980;29;20035;-78
2020/12/25 10:05:05;;;;;;;7.82;1.75;;;;;;;17.71;52.94;102654.25;4806489;29;20034;-78
2020/12/25 10:07:30;;;;;;;5.30;1.83;;;;;;;17.62;53.32;102652.34;4807344;29;20034;-78
2020/12/25 10:09:56;;;;;;;3.65;1.30;;;;;;;17.58;53.66;102653.13;4813298;29;20022;-78
2020/12/25 10:12:21;;;;;;;4.03;1.60;;;;;;;17.57;53.52;102657.47;4812099;29;20129;-77
2020/12/25 10:14:46;;;;;;;6.50;1.55;;;;;;;17.57;53.51;102659.16;4812088;29;20034;-78
2020/12/25 10:17:12;;;;;;;8.65;1.65;;;;;;;17.57;53.36;102660.06;4812369;29;20034;-77
2020/12/25 10:19:37;;;;;;;3.65;1.52;;;;;;;17.65;53.51;102661.06;4827078;29;20026;-77
2020/12/25 10:22:03;;;;;;;2.85;1.02;;;;;;;17.65;53.25;102665.41;4827339;29;20046;-79
2020/12/25 10:24:28;;;;;;;3.78;1.52;;;;;;;17.68;53.27;102658.56;4812027;29;20034;-79
2020/12/25 10:26:53;;;;;;;3.65;1.40;;;;;;;17.76;53.07;102669.09;4842833;29;20045;-79
2020/12/25 10:29:19;;;;;;;2.85;1.60;;;;;;;17.70;53.28;102676.78;4815844;29;20034;-79
2020/12/25 10:31:50;;;;;;;3.95;1.40;;;;;;;17.64;53.38;102663.66;4809204;29;20042;-79
2020/12/25 10:34:15;;;;;;;3.03;1.00;;;;;;;17.62;53.39;102665.38;4827046;29;20495;-79
2020/12/25 10:36:42;;;;;;;3.97;1.48;;;;;;;17.61;53.46;102656.66;4823351;29;20141;-79
2020/12/25 10:39:09;;;;;;;3.80;1.25;;;;;;;17.61;53.33;102661.00;4814263;29;20069;-79
2020/12/25 10:41:34;;;;;;;3.33;1.08;;;;;;;17.61;53.51;102659.25;4810648;29;20031;-79
2020/12/25 10:44:00;;;;;;;2.78;1.20;;;;;;;17.62;53.27;102657.56;4830693;29;20033;-79
2020/12/25 10:46:26;;;;;;;2.75;1.17;;;;;;;17.65;53.13;102660.19;4845569;29;20459;-79
2020/12/25 10:48:51;;;;;;;3.65;1.20;;;;;;;17.71;53.28;102668.13;4835485;29;20030;-80
2020/12/25 10:51:17;;;;;;;4.60;1.20;;;;;;;17.74;53.03;102667.31;4838232;29;20050;-79
2020/12/25 10:53:42;;;;;;;2.05;1.05;;;;;;;17.76;53.06;102669.09;4794232;29;20518;-79
2020/12/25 10:56:08;;;;;;;2.38;1.00;;;;;;;17.73;53.22;102671.66;4794210;29;20083;-79
2020/12/25 10:58:33;;;;;;;3.20;1.40;;;;;;;17.74;53.16;102676.00;4832217;29;20028;-79
2020/12/25 11:00:59;;;;;;;2.17;0.93;;;;;;;17.70;53.50;102687.19;4839638;29;20038;-79
2020/12/25 11:03:24;;;;;;;3.25;0.98;;;;;;;17.63;53.39;102698.34;4826670;29;20402;-78
2020/12/25 11:05:50;;;;;;;2.50;0.98;;;;;;;17.58;53.41;102685.25;4804969;29;20499;-77
2020/12/25 11:08:15;;;;;;;2.47;0.82;;;;;;;17.56;53.56;102694.75;4807802;29;20505;-78
2020/12/25 11:10:44;;;;;;;2.33;1.05;;;;;;;17.56;53.47;102694.75;4826334;29;20490;-79
2020/12/25 11:13:10;;;;;;;3.30;1.20;;;;;;;17.53;53.51;102691.19;4828170;29;20039;-79
2020/12/25 11:15:39;;;;;;;2.50;1.10;;;;;;;17.55;53.57;102697.31;4828052;29;20394;-79
2020/12/25 11:18:04;;;;;;;3.15;0.93;;;;;;;17.57;53.54;102691.31;4840476;29;20114;-79
2020/12/25 11:20:30;;;;;;;2.10;0.90;;;;;;;17.56;53.60;102688.66;4812450;29;20067;-79
2020/12/25 11:22:55;;;;;;;3.53;1.10;;;;;;;17.56;53.22;102693.88;4833013;29;20070;-79